Grider Field
KPBF : now visible

Airfield :











YOU CAN JOIN US ON...

 
LOGIN :

Register | Disclaimer

   EN    FR    IT 

 









Legend :    VFR   Marginal VFR   IFR   Intensive IFR   Very Intensive IFR
Visi :
Ceiling :
>= 8 km
>= 3000ft
5 to 8 km
1000 to 3000 ft
1500m to 5 km
500 to 1000 ft
800 to 1500m
200 to 500 ft
< 800m
< 200 ft
Symbols :   Thunderstorms  Fog  Heavy snow  Heavy precipitations  Wind > 20 kt






- Airport Elevation : 206 ft


KPBF - Grider Field

CURRENT METAR :
  • 250753Z AUTO 30006KT 10SM FEW010 09/07 A2992 RMK AO2 SLP132 T00890067

EXPIRED METARs :
  • 250653Z AUTO 27006KT 10SM BKN010 09/07 A2993 RMK AO2 SLP134 T00940067
  • 250645Z AUTO 26006KT 10SM BKN010 09/07 A2993 RMK AO2 T00940067
  • 250553Z AUTO 25008KT 10SM CLR 10/06 A2992 RMK AO2 SLP130 T01000061 10128 20089 401941011 51008

TAF KPBF
Valid from the 25 at 06:00 until the 26 at 06:00 UTC


250532Z 2506/2606 24006KT P6SM SCT015 BKN040
TEMPO 2506/2509 BKN015 OVC040
FM250900 01008KT P6SM SCT100 BKN250
FM251600 03012KT P6SM BKN250
FM252000 04010KT P6SM SCT250
FM260000 03006KT P6SM SKC
KZME FIR / North America



MET'MAP, your aeronautical weather chart ! - Copyright ORBIFLY December 2007 - Disclaimer

ORBIFLY MET'MAP TEAM :

Programming & Development : Alexandra Zaïnal
Original concept : Baudouin d'Aumeries
Technical & hardware support : Manuel Goepfert
Assistance : Marc-Olivier Méhu

Contact : metmap@orbifly.com




SOURCES & CREDITS :

   NOAA       Earth
Advisory